createdAt,value
2018-06-19T00:00:29.858Z,1012.3
2018-06-19T00:01:31.782Z,1012.3
2018-06-19T00:02:33.753Z,1012.3
2018-06-19T00:03:35.827Z,1012.3
2018-06-19T00:04:37.943Z,1012.3
2018-06-19T00:05:40.051Z,1012.3
2018-06-19T00:06:42.225Z,1012.3
2018-06-19T00:07:44.399Z,1012.2
2018-06-19T00:08:46.556Z,1012.3
2018-06-19T00:09:48.314Z,1012.3
2018-06-19T00:10:50.389Z,1012.3
2018-06-19T00:11:52.699Z,1012.3
2018-06-19T00:12:54.601Z,1012.3
2018-06-19T00:13:56.585Z,1012.3
2018-06-19T00:14:58.367Z,1012.3
2018-06-19T00:16:00.085Z,1012.2
2018-06-19T00:17:02.075Z,1012.2
2018-06-19T00:18:04.130Z,1012.2
2018-06-19T00:19:05.981Z,1012.2
2018-06-19T00:20:08.060Z,1012.2
2018-06-19T00:21:09.758Z,1012.2
2018-06-19T00:22:11.879Z,1012.2
2018-06-19T00:23:13.995Z,1012.2
2018-06-19T00:24:15.953Z,1012.2
2018-06-19T00:25:17.747Z,1012.2
2018-06-19T00:26:19.600Z,1012.2
2018-06-19T00:27:21.709Z,1012.2
2018-06-19T00:28:23.628Z,1012.2
2018-06-19T00:29:25.695Z,1012.2
2018-06-19T00:30:27.466Z,1012.2
2018-06-19T00:31:29.547Z,1012.2
2018-06-19T00:32:31.539Z,1012.2
2018-06-19T00:33:33.508Z,1012.2
2018-06-19T00:34:35.532Z,1012.2
2018-06-19T00:35:37.571Z,1012.2
2018-06-19T00:36:39.593Z,1012.2
2018-06-19T00:37:41.540Z,1012.3
2018-06-19T00:38:43.362Z,1012.3
2018-06-19T00:39:45.067Z,1012.3
2018-06-19T00:40:46.873Z,1012.3
2018-06-19T00:41:48.991Z,1012.2
2018-06-19T00:42:50.976Z,1012.2
2018-06-19T00:43:52.850Z,1012.3
2018-06-19T00:44:54.657Z,1012.3
2018-06-19T00:45:56.463Z,1012.3
2018-06-19T00:46:58.374Z,1012.2
2018-06-19T00:48:00.617Z,1012.2
2018-06-19T00:49:02.368Z,1012.2
2018-06-19T00:50:04.664Z,1012.3
2018-06-19T00:51:06.401Z,1012.3
2018-06-19T00:52:08.047Z,1012.4
2018-06-19T00:53:09.997Z,1012.3
2018-06-19T00:54:12.004Z,1012.4
2018-06-19T00:55:13.810Z,1012.4
2018-06-19T00:56:15.954Z,1012.4
2018-06-19T00:57:17.884Z,1012.4
2018-06-19T00:58:20.068Z,1012.3
2018-06-19T00:59:22.072Z,1012.4
2018-06-19T01:00:23.839Z,1012.4
2018-06-19T01:01:25.768Z,1012.5
2018-06-19T01:02:27.829Z,1012.5
2018-06-19T01:03:29.566Z,1012.5
2018-06-19T01:04:31.522Z,1012.5
2018-06-19T01:05:33.522Z,1012.5
2018-06-19T01:06:35.746Z,1012.5
2018-06-19T01:07:37.804Z,1012.5
2018-06-19T01:08:39.863Z,1012.5
2018-06-19T01:09:41.975Z,1012.5
2018-06-19T01:10:43.760Z,1012.5
2018-06-19T01:11:45.754Z,1012.5
2018-06-19T01:12:47.756Z,1012.5
2018-06-19T01:13:49.680Z,1012.6
2018-06-19T01:14:51.777Z,1012.5
2018-06-19T01:15:53.797Z,1012.5
2018-06-19T01:16:55.850Z,1012.5
2018-06-19T01:17:57.983Z,1012.5
2018-06-19T01:19:00.090Z,1012.5
2018-06-19T01:20:02.040Z,1012.5
2018-06-19T01:21:04.251Z,1012.5
2018-06-19T01:22:06.365Z,1012.5
2018-06-19T01:23:08.343Z,1012.5
2018-06-19T01:24:10.103Z,1012.5
2018-06-19T01:25:12.319Z,1012.5
2018-06-19T01:26:14.361Z,1012.5
2018-06-19T01:27:16.162Z,1012.5
2018-06-19T01:28:18.215Z,1012.5
2018-06-19T01:29:20.222Z,1012.5
2018-06-19T01:30:22.350Z,1012.5
2018-06-19T01:31:24.297Z,1012.5
2018-06-19T01:32:26.243Z,1012.5
2018-06-19T01:33:28.283Z,1012.5
2018-06-19T01:34:30.440Z,1012.5
2018-06-19T01:35:32.634Z,1012.6
2018-06-19T01:36:34.427Z,1012.5
2018-06-19T01:37:36.418Z,1012.5
2018-06-19T01:38:38.274Z,1012.5
2018-06-19T01:39:40.057Z,1012.5
2018-06-19T01:40:42.083Z,1012.5
2018-06-19T01:41:44.054Z,1012.5
2018-06-19T01:42:45.844Z,1012.5
2018-06-19T01:43:47.680Z,1012.5
2018-06-19T01:44:49.447Z,1012.5
2018-06-19T01:45:51.701Z,1012.5
2018-06-19T01:46:53.779Z,1012.4
2018-06-19T01:47:55.948Z,1012.4
2018-06-19T01:48:57.682Z,1012.4
2018-06-19T01:49:59.439Z,1012.4
2018-06-19T01:51:01.725Z,1012.4
2018-06-19T01:52:03.810Z,1012.4
2018-06-19T01:53:05.698Z,1012.4
2018-06-19T01:54:07.938Z,1012.4
2018-06-19T01:55:10.086Z,1012.5
2018-06-19T01:56:11.853Z,1012.5
2018-06-19T01:57:13.885Z,1012.5
2018-06-19T01:58:15.684Z,1012.4
2018-06-19T01:59:17.876Z,1012.4
2018-06-19T02:00:19.631Z,1012.3
2018-06-19T02:01:21.758Z,1012.4
2018-06-19T02:02:23.469Z,1012.4
2018-06-19T02:03:25.286Z,1012.4
2018-06-19T02:04:27.327Z,1012.4
2018-06-19T02:05:29.277Z,1012.4
2018-06-19T02:06:31.340Z,1012.4
2018-06-19T02:07:33.093Z,1012.4
2018-06-19T02:08:35.157Z,1012.4
2018-06-19T02:09:37.231Z,1012.4
2018-06-19T02:10:39.028Z,1012.4
2018-06-19T02:11:41.160Z,1012.4
2018-06-19T02:12:43.271Z,1012.4
2018-06-19T02:13:45.333Z,1012.4
2018-06-19T02:14:47.249Z,1012.3
2018-06-19T02:15:48.951Z,1012.3
2018-06-19T02:16:50.964Z,1012.3
2018-06-19T02:17:52.737Z,1012.4
2018-06-19T02:18:54.677Z,1012.3
2018-06-19T02:19:56.689Z,1012.3
2018-06-19T02:20:58.625Z,1012.3
2018-06-19T02:22:00.398Z,1012.2
2018-06-19T02:23:02.260Z,1012.3
2018-06-19T02:24:04.488Z,1012.2
2018-06-19T02:25:06.393Z,1012.2
2018-06-19T02:26:08.185Z,1012.2
2018-06-19T02:27:10.372Z,1012.2
2018-06-19T02:28:12.030Z,1012.2
2018-06-19T02:29:14.051Z,1012.2
2018-06-19T02:30:15.994Z,1012.2
2018-06-19T02:31:18.017Z,1012.3
2018-06-19T02:32:19.809Z,1012.3
2018-06-19T02:33:21.807Z,1012.3
2018-06-19T02:34:23.776Z,1012.3
2018-06-19T02:35:25.925Z,1012.4
2018-06-19T02:36:27.840Z,1012.4
2018-06-19T02:37:29.739Z,1012.4
2018-06-19T02:38:31.687Z,1012.3
2018-06-19T02:39:33.626Z,1012.4
2018-06-19T02:40:35.428Z,1012.4
2018-06-19T02:41:37.178Z,1012.4
2018-06-19T02:42:39.005Z,1012.4
2018-06-19T02:43:41.240Z,1012.4
2018-06-19T02:44:43.244Z,1012.4
2018-06-19T02:45:45.098Z,1012.5
2018-06-19T02:46:47.062Z,1012.5
2018-06-19T02:47:48.944Z,1012.5
2018-06-19T02:48:50.635Z,1012.5
2018-06-19T02:49:52.463Z,1012.5
2018-06-19T02:50:54.611Z,1012.5
2018-06-19T02:51:56.645Z,1012.4
2018-06-19T02:52:58.408Z,1012.5
2018-06-19T02:54:00.165Z,1012.5
2018-06-19T02:55:02.108Z,1012.5
2018-06-19T02:56:04.275Z,1012.5
2018-06-19T02:57:06.221Z,1012.5
2018-06-19T02:58:08.343Z,1012.5
2018-06-19T02:59:10.378Z,1012.6
2018-06-19T03:00:12.482Z,1012.5
2018-06-19T03:01:14.535Z,1012.5
2018-06-19T03:02:16.313Z,1012.6
2018-06-19T03:03:18.428Z,1012.6
2018-06-19T03:04:20.191Z,1012.6
2018-06-19T03:05:22.113Z,1012.5
2018-06-19T03:06:24.211Z,1012.6
2018-06-19T03:07:25.966Z,1012.6
2018-06-19T03:08:28.083Z,1012.6
2018-06-19T03:09:29.832Z,1012.6
2018-06-19T03:10:31.921Z,1012.6
2018-06-19T03:11:33.668Z,1012.5
2018-06-19T03:12:36.223Z,1012.6
2018-06-19T03:13:37.969Z,1012.6
2018-06-19T03:14:39.987Z,1012.6
2018-06-19T03:15:41.925Z,1012.6
2018-06-19T03:16:44.128Z,1012.6
2018-06-19T03:17:46.049Z,1012.6
2018-06-19T03:18:47.918Z,1012.6
2018-06-19T03:19:49.835Z,1012.6
2018-06-19T03:20:51.588Z,1012.6
2018-06-19T03:21:54.324Z,1012.6
2018-06-19T03:22:56.224Z,1012.6
2018-06-19T03:23:58.170Z,1012.6
2018-06-19T03:25:00.229Z,1012.6
2018-06-19T03:26:02.530Z,1012.7
2018-06-19T03:27:04.188Z,1012.7
2018-06-19T03:28:06.320Z,1012.7
2018-06-19T03:29:08.096Z,1012.7
2018-06-19T03:30:10.154Z,1012.7
2018-06-19T03:31:12.289Z,1012.7
2018-06-19T03:32:14.412Z,1012.7
2018-06-19T03:33:16.100Z,1012.7
2018-06-19T03:34:18.064Z,1012.7
2018-06-19T03:35:20.262Z,1012.7
2018-06-19T03:36:22.342Z,1012.7
2018-06-19T03:37:24.108Z,1012.7
2018-06-19T03:38:25.949Z,1012.7
2018-06-19T03:39:27.844Z,1012.8
2018-06-19T03:40:29.827Z,1012.7
2018-06-19T03:41:31.725Z,1012.7
2018-06-19T03:42:33.392Z,1012.7
2018-06-19T03:43:35.145Z,1012.8
2018-06-19T03:44:37.148Z,1012.8
2018-06-19T03:45:39.199Z,1012.8
2018-06-19T03:46:41.133Z,1012.8
2018-06-19T03:47:43.183Z,1012.8
2018-06-19T03:48:45.393Z,1012.7
2018-06-19T03:49:47.156Z,1012.7
2018-06-19T03:50:49.275Z,1012.8
2018-06-19T03:51:51.112Z,1012.8
2018-06-19T03:52:52.855Z,1012.9
2018-06-19T03:53:54.593Z,1012.8
2018-06-19T03:54:56.685Z,1012.8
2018-06-19T03:55:58.731Z,1012.8
2018-06-19T03:57:00.546Z,1012.9
2018-06-19T03:58:02.261Z,1012.8
2018-06-19T03:59:04.004Z,1012.9
2018-06-19T04:00:05.857Z,1012.9
2018-06-19T04:01:07.907Z,1012.9
2018-06-19T04:02:09.759Z,1012.9
2018-06-19T04:03:11.513Z,1012.9
2018-06-19T04:04:13.471Z,1012.9
2018-06-19T04:05:15.395Z,1013.0
2018-06-19T04:06:17.160Z,1013.0
2018-06-19T04:07:18.872Z,1013.0
2018-06-19T04:08:20.587Z,1013.0
2018-06-19T04:09:22.316Z,1013.0
2018-06-19T04:10:24.101Z,1013.0
2018-06-19T04:11:26.076Z,1013.0
2018-06-19T04:12:27.908Z,1013.0
2018-06-19T04:13:30.068Z,1013.1
2018-06-19T04:14:32.055Z,1013.0
2018-06-19T04:15:34.280Z,1013.1
2018-06-19T04:16:36.173Z,1013.0
2018-06-19T04:17:38.030Z,1013.1
2018-06-19T04:18:39.787Z,1013.1
2018-06-19T04:19:42.128Z,1013.0
2018-06-19T04:20:44.245Z,1013.0
2018-06-19T04:21:46.331Z,1013.0
2018-06-19T04:22:48.083Z,1013.0
2018-06-19T04:23:49.891Z,1013.0
2018-06-19T04:24:51.644Z,1013.1
2018-06-19T04:25:53.763Z,1013.1
2018-06-19T04:26:55.659Z,1013.1
2018-06-19T04:27:57.425Z,1013.1
2018-06-19T04:28:59.569Z,1013.1
2018-06-19T04:30:01.443Z,1013.2
2018-06-19T04:31:03.566Z,1013.2
2018-06-19T04:32:05.804Z,1013.1
2018-06-19T04:33:07.655Z,1013.1
2018-06-19T04:34:09.424Z,1013.2
2018-06-19T04:35:11.443Z,1013.1
2018-06-19T04:36:13.393Z,1013.1
2018-06-19T04:37:15.141Z,1013.1
2018-06-19T04:38:16.933Z,1013.1
2018-06-19T04:39:19.127Z,1013.1
2018-06-19T04:40:20.922Z,1013.1
2018-06-19T04:41:23.149Z,1013.1
2018-06-19T04:42:24.939Z,1013.2
2018-06-19T04:43:26.719Z,1013.2
2018-06-19T04:44:28.531Z,1013.2
2018-06-19T04:45:30.797Z,1013.2
2018-06-19T04:46:32.525Z,1013.2
2018-06-19T04:47:34.264Z,1013.2
2018-06-19T04:48:36.453Z,1013.2
2018-06-19T04:49:38.320Z,1013.2
2018-06-19T04:50:40.444Z,1013.2
2018-06-19T04:51:42.100Z,1013.2
2018-06-19T04:52:43.986Z,1013.2
2018-06-19T04:53:48.477Z,1013.2
2018-06-19T04:54:51.490Z,1013.2
2018-06-19T04:55:53.206Z,1013.2
2018-06-19T04:56:55.013Z,1013.2
2018-06-19T04:57:56.832Z,1013.2
2018-06-19T04:58:58.849Z,1013.2
2018-06-19T05:00:01.190Z,1013.2
2018-06-19T05:01:03.090Z,1013.2
2018-06-19T05:02:05.000Z,1013.2
2018-06-19T05:03:06.988Z,1013.2
2018-06-19T05:04:08.810Z,1013.2
2018-06-19T05:05:10.532Z,1013.2
2018-06-19T05:06:12.559Z,1013.2
2018-06-19T05:07:14.645Z,1013.2
2018-06-19T05:08:16.727Z,1013.2
2018-06-19T05:09:18.877Z,1013.0
2018-06-19T05:10:20.559Z,1013.1
2018-06-19T05:11:22.995Z,1013.2
2018-06-19T05:12:24.980Z,1013.2
2018-06-19T05:13:27.109Z,1013.2
2018-06-19T05:14:28.875Z,1013.2
2018-06-19T05:15:31.051Z,1013.3
2018-06-19T05:16:33.374Z,1013.3
2018-06-19T05:17:35.773Z,1013.3
2018-06-19T05:18:37.733Z,1013.3
2018-06-19T05:19:39.973Z,1013.3
2018-06-19T05:20:41.686Z,1013.3
2018-06-19T05:21:44.403Z,1013.3
2018-06-19T05:22:46.514Z,1013.3
2018-06-19T05:23:48.256Z,1013.3
2018-06-19T05:24:50.482Z,1013.3
2018-06-19T05:25:52.310Z,1013.3
2018-06-19T05:26:54.636Z,1013.3
2018-06-19T05:27:56.460Z,1013.3
2018-06-19T05:28:58.196Z,1013.4
2018-06-19T05:30:00.046Z,1013.4
2018-06-19T05:31:01.753Z,1013.4
2018-06-19T05:32:03.528Z,1013.4
2018-06-19T05:33:05.286Z,1013.5
2018-06-19T05:34:06.986Z,1013.4
2018-06-19T05:35:08.742Z,1013.4
2018-06-19T05:36:10.537Z,1013.4
2018-06-19T05:37:12.266Z,1013.4
2018-06-19T05:38:13.976Z,1013.4
2018-06-19T05:39:15.604Z,1013.4
2018-06-19T05:40:17.374Z,1013.4
2018-06-19T05:41:19.074Z,1013.4
2018-06-19T05:42:20.796Z,1013.5
2018-06-19T05:43:22.533Z,1013.4
2018-06-19T05:44:24.265Z,1013.5
2018-06-19T05:45:26.007Z,1013.4
2018-06-19T05:46:27.686Z,1013.5
2018-06-19T05:47:29.470Z,1013.5
2018-06-19T05:48:31.280Z,1013.5
2018-06-19T05:49:32.964Z,1013.5
2018-06-19T05:50:34.711Z,1013.6
2018-06-19T05:51:36.464Z,1013.6
2018-06-19T05:52:38.187Z,1013.7
2018-06-19T05:53:40.012Z,1013.7
2018-06-19T05:54:41.720Z,1013.6
2018-06-19T05:55:43.393Z,1013.6
2018-06-19T05:56:45.185Z,1013.7
2018-06-19T05:57:46.972Z,1013.6
2018-06-19T05:58:48.637Z,1013.7
2018-06-19T05:59:50.359Z,1013.6
2018-06-19T06:00:52.140Z,1013.6
2018-06-19T06:01:53.829Z,1013.6
2018-06-19T06:02:55.526Z,1013.6
2018-06-19T06:03:57.124Z,1013.6
2018-06-19T06:04:58.865Z,1013.6
2018-06-19T06:06:00.612Z,1013.6
2018-06-19T06:07:02.290Z,1013.6
2018-06-19T06:08:04.015Z,1013.7
2018-06-19T06:09:05.672Z,1013.6
2018-06-19T06:10:07.434Z,1013.7
2018-06-19T06:11:09.237Z,1013.6
2018-06-19T06:12:10.913Z,1013.6
2018-06-19T06:13:12.621Z,1013.7
2018-06-19T06:14:14.335Z,1013.7
2018-06-19T06:15:16.103Z,1013.7
2018-06-19T06:16:17.855Z,1013.7
2018-06-19T06:17:19.538Z,1013.7
2018-06-19T06:18:21.279Z,1013.7
2018-06-19T06:19:23.056Z,1013.8
2018-06-19T06:20:24.780Z,1013.8
2018-06-19T06:21:26.547Z,1013.8
2018-06-19T06:22:28.233Z,1013.9
2018-06-19T06:23:29.946Z,1013.9
2018-06-19T06:24:31.649Z,1013.9
2018-06-19T06:25:33.385Z,1013.9
2018-06-19T06:26:35.129Z,1013.9
2018-06-19T06:27:36.879Z,1013.9
2018-06-19T06:28:38.630Z,1013.9
2018-06-19T06:29:40.355Z,1013.9
2018-06-19T06:30:42.041Z,1013.9
2018-06-19T06:31:43.765Z,1014.0
2018-06-19T06:32:45.506Z,1014.0
2018-06-19T06:33:47.186Z,1014.0
2018-06-19T06:34:48.945Z,1014.0
2018-06-19T06:35:50.645Z,1014.0
2018-06-19T06:36:52.344Z,1014.0
2018-06-19T06:37:54.077Z,1014.1
2018-06-19T06:38:55.771Z,1014.1
2018-06-19T06:39:57.498Z,1014.1
2018-06-19T06:40:59.303Z,1014.1
2018-06-19T06:42:01.051Z,1014.1
2018-06-19T06:43:02.692Z,1014.1
2018-06-19T06:44:04.427Z,1014.1
2018-06-19T06:45:06.262Z,1014.1
2018-06-19T06:46:08.015Z,1014.1
2018-06-19T06:47:09.818Z,1014.1
2018-06-19T06:48:11.562Z,1014.1
2018-06-19T06:49:13.272Z,1014.1
2018-06-19T06:50:15.063Z,1014.1
2018-06-19T06:51:16.789Z,1014.1
2018-06-19T06:52:18.627Z,1014.1
2018-06-19T06:53:20.394Z,1014.1
2018-06-19T06:54:22.260Z,1014.2
2018-06-19T06:55:24.092Z,1014.1
2018-06-19T06:56:25.827Z,1014.1
2018-06-19T06:57:27.649Z,1014.2
2018-06-19T06:58:29.452Z,1014.2
2018-06-19T06:59:31.260Z,1014.2
2018-06-19T07:00:32.933Z,1014.2
2018-06-19T07:01:34.750Z,1014.2
2018-06-19T07:02:36.466Z,1014.2
2018-06-19T07:03:38.247Z,1014.2
2018-06-19T07:04:39.993Z,1014.3
2018-06-19T07:05:41.718Z,1014.3
2018-06-19T07:06:43.483Z,1014.3
2018-06-19T07:07:45.309Z,1014.3
2018-06-19T07:08:46.965Z,1014.3
2018-06-19T07:09:48.684Z,1014.3
2018-06-19T07:10:50.431Z,1014.3
2018-06-19T07:11:52.169Z,1014.4
2018-06-19T07:12:53.978Z,1014.3
2018-06-19T07:13:55.666Z,1014.4
2018-06-19T07:14:57.418Z,1014.4
2018-06-19T07:15:58.990Z,1014.4
2018-06-19T07:17:00.699Z,1014.4
2018-06-19T07:18:02.318Z,1014.4
2018-06-19T07:19:03.983Z,1014.4
2018-06-19T07:20:05.498Z,1014.4
2018-06-19T07:21:07.207Z,1014.4
2018-06-19T07:22:08.875Z,1014.4
2018-06-19T07:23:10.506Z,1014.5
2018-06-19T07:24:12.016Z,1014.6
2018-06-19T07:25:13.746Z,1014.5
2018-06-19T07:26:15.464Z,1014.5
2018-06-19T07:27:17.120Z,1014.5
2018-06-19T07:28:18.852Z,1014.6
2018-06-19T07:29:20.506Z,1014.6
2018-06-19T07:30:22.169Z,1014.6
2018-06-19T07:31:23.714Z,1014.6
2018-06-19T07:32:25.403Z,1014.5
2018-06-19T07:33:27.126Z,1014.6
2018-06-19T07:34:28.846Z,1014.6
2018-06-19T07:35:30.483Z,1014.5
2018-06-19T07:36:32.076Z,1014.6
2018-06-19T07:37:33.835Z,1014.6
2018-06-19T07:38:35.550Z,1014.6
2018-06-19T07:39:37.295Z,1014.6
2018-06-19T07:40:38.914Z,1014.6
2018-06-19T07:41:40.633Z,1014.6
2018-06-19T07:42:42.346Z,1014.6
2018-06-19T07:43:44.133Z,1014.6
2018-06-19T07:44:45.854Z,1014.5
2018-06-19T07:45:47.668Z,1014.5
2018-06-19T07:46:49.401Z,1014.5
2018-06-19T07:47:51.088Z,1014.4
2018-06-19T07:48:52.837Z,1014.4
2018-06-19T07:49:54.522Z,1014.5
2018-06-19T07:50:56.334Z,1014.6
2018-06-19T07:51:58.156Z,1014.6
2018-06-19T07:52:59.892Z,1014.6
2018-06-19T07:54:01.564Z,1014.6
2018-06-19T07:55:03.255Z,1014.6
2018-06-19T07:56:05.009Z,1014.5
2018-06-19T07:57:06.716Z,1014.6
2018-06-19T07:58:08.493Z,1014.6
2018-06-19T07:59:10.290Z,1014.6
2018-06-19T08:00:12.011Z,1014.6
2018-06-19T08:01:13.883Z,1014.7
2018-06-19T08:02:15.617Z,1014.6
2018-06-19T08:03:17.356Z,1014.6
2018-06-19T08:04:19.155Z,1014.6
2018-06-19T08:05:20.945Z,1014.6
2018-06-19T08:06:22.638Z,1014.6
2018-06-19T08:07:24.451Z,1014.6
2018-06-19T08:08:26.230Z,1014.7
2018-06-19T08:09:28.049Z,1014.7
2018-06-19T08:10:29.708Z,1014.7
2018-06-19T08:11:31.421Z,1014.7
2018-06-19T08:12:33.149Z,1014.7
2018-06-19T08:13:35.006Z,1014.7
2018-06-19T08:14:36.663Z,1014.7
2018-06-19T08:15:38.466Z,1014.7
2018-06-19T08:16:40.198Z,1014.7
2018-06-19T08:17:41.941Z,1014.7
2018-06-19T08:18:43.693Z,1014.7
2018-06-19T08:19:45.519Z,1014.7
2018-06-19T08:20:47.312Z,1014.7
2018-06-19T08:21:49.133Z,1014.7
2018-06-19T08:22:50.825Z,1014.7
2018-06-19T08:23:52.530Z,1014.7
2018-06-19T08:24:54.255Z,1014.7
2018-06-19T08:25:55.972Z,1014.7
2018-06-19T08:26:57.785Z,1014.8
2018-06-19T08:27:59.511Z,1014.8
2018-06-19T08:29:01.218Z,1014.8
2018-06-19T08:30:02.923Z,1014.8
2018-06-19T08:31:04.701Z,1014.8
2018-06-19T08:32:06.474Z,1014.8
2018-06-19T08:33:08.278Z,1014.9
2018-06-19T08:34:10.033Z,1014.9
2018-06-19T08:35:11.710Z,1014.8
2018-06-19T08:36:13.536Z,1014.9
2018-06-19T08:37:15.351Z,1014.9
2018-06-19T08:38:17.167Z,1014.9
2018-06-19T08:39:18.970Z,1014.9
2018-06-19T08:40:20.704Z,1014.9
2018-06-19T08:41:22.451Z,1014.8
2018-06-19T08:42:24.266Z,1014.8
2018-06-19T08:43:26.026Z,1014.9
2018-06-19T08:44:27.926Z,1014.9
2018-06-19T08:45:29.700Z,1014.8
2018-06-19T08:46:31.443Z,1014.9
2018-06-19T08:47:33.225Z,1014.9
2018-06-19T08:48:34.989Z,1014.9
2018-06-19T08:49:36.780Z,1014.9
2018-06-19T08:50:38.592Z,1014.9
2018-06-19T08:51:40.298Z,1014.9
2018-06-19T08:52:42.083Z,1014.9
2018-06-19T08:53:43.999Z,1015.0
2018-06-19T08:54:45.841Z,1015.0
2018-06-19T08:55:47.556Z,1015.0
2018-06-19T08:56:49.403Z,1015.0
2018-06-19T08:57:51.118Z,1015.0
2018-06-19T08:58:52.935Z,1015.0
2018-06-19T08:59:54.662Z,1015.1
2018-06-19T09:00:56.386Z,1015.1
2018-06-19T09:01:58.174Z,1015.1
2018-06-19T09:02:59.903Z,1015.1
2018-06-19T09:04:01.689Z,1015.1
2018-06-19T09:05:03.454Z,1015.1
2018-06-19T09:06:05.241Z,1015.1
2018-06-19T09:07:07.010Z,1015.1
2018-06-19T09:08:08.863Z,1015.2
2018-06-19T09:09:10.602Z,1015.2
2018-06-19T09:10:12.266Z,1015.2
2018-06-19T09:11:13.979Z,1015.2
2018-06-19T09:12:15.731Z,1015.2
2018-06-19T09:13:17.455Z,1015.3
2018-06-19T09:14:19.149Z,1015.3
2018-06-19T09:15:20.920Z,1015.3
2018-06-19T09:16:22.691Z,1015.3
2018-06-19T09:17:24.389Z,1015.3
2018-06-19T09:18:26.207Z,1015.3
2018-06-19T09:19:27.971Z,1015.3
2018-06-19T09:20:29.765Z,1015.3
2018-06-19T09:21:31.375Z,1015.3
2018-06-19T09:22:33.194Z,1015.3
2018-06-19T09:23:34.891Z,1015.3
2018-06-19T09:24:36.723Z,1015.2
2018-06-19T09:25:38.502Z,1015.3
2018-06-19T09:26:40.274Z,1015.2
2018-06-19T09:27:42.023Z,1015.2
2018-06-19T09:28:43.728Z,1015.2
2018-06-19T09:29:45.573Z,1015.2
2018-06-19T09:30:47.316Z,1015.2
2018-06-19T09:31:49.132Z,1015.2
2018-06-19T09:32:50.820Z,1015.1
2018-06-19T09:33:52.518Z,1015.2
2018-06-19T09:34:54.366Z,1015.2
2018-06-19T09:35:56.177Z,1015.2
2018-06-19T09:36:57.980Z,1015.2
2018-06-19T09:37:59.752Z,1015.3
2018-06-19T09:39:01.482Z,1015.3
2018-06-19T09:40:03.308Z,1015.3
2018-06-19T09:41:05.078Z,1015.2
2018-06-19T09:42:06.888Z,1015.3
2018-06-19T09:43:08.604Z,1015.3
2018-06-19T09:44:10.356Z,1015.3
2018-06-19T09:45:12.205Z,1015.3
2018-06-19T09:46:13.981Z,1015.3
2018-06-19T09:47:15.686Z,1015.3
2018-06-19T09:48:17.456Z,1015.4
2018-06-19T09:49:19.299Z,1015.4
2018-06-19T09:50:21.038Z,1015.4
2018-06-19T09:51:22.801Z,1015.4
2018-06-19T09:52:24.524Z,1015.4
2018-06-19T09:53:26.310Z,1015.3
2018-06-19T09:54:28.055Z,1015.3
2018-06-19T09:55:29.912Z,1015.4
2018-06-19T09:56:31.696Z,1015.4
2018-06-19T09:57:33.405Z,1015.3
2018-06-19T09:58:35.212Z,1015.4
2018-06-19T09:59:37.003Z,1015.3
2018-06-19T10:00:38.752Z,1015.4
2018-06-19T10:01:40.581Z,1015.4
2018-06-19T10:02:42.346Z,1015.4
2018-06-19T10:03:44.117Z,1015.4
2018-06-19T10:04:46.046Z,1015.5
2018-06-19T10:05:47.838Z,1015.4
2018-06-19T10:06:49.492Z,1015.3
2018-06-19T10:07:51.236Z,1015.3
2018-06-19T10:08:52.999Z,1015.3
2018-06-19T10:09:54.873Z,1015.3
2018-06-19T10:10:56.630Z,1015.3
2018-06-19T10:11:58.420Z,1015.3
2018-06-19T10:13:00.127Z,1015.3
2018-06-19T10:14:01.844Z,1015.3
2018-06-19T10:15:03.530Z,1015.4
2018-06-19T10:16:05.315Z,1015.4
2018-06-19T10:17:07.218Z,1015.4
2018-06-19T10:18:08.998Z,1015.4
2018-06-19T10:19:10.873Z,1015.4
2018-06-19T10:20:12.637Z,1015.4
2018-06-19T10:21:14.328Z,1015.4
2018-06-19T10:22:16.142Z,1015.4
2018-06-19T10:23:17.932Z,1015.5
2018-06-19T10:24:19.708Z,1015.6
2018-06-19T10:25:21.408Z,1015.5
2018-06-19T10:26:23.154Z,1015.4
2018-06-19T10:27:24.902Z,1015.5
2018-06-19T10:28:26.655Z,1015.6
2018-06-19T10:29:28.394Z,1015.5
2018-06-19T10:30:30.187Z,1015.5
2018-06-19T10:31:31.962Z,1015.5
2018-06-19T10:32:33.704Z,1015.4
2018-06-19T10:33:35.586Z,1015.5
2018-06-19T10:34:37.327Z,1015.5
2018-06-19T10:35:39.121Z,1015.6
2018-06-19T10:36:40.891Z,1015.5
2018-06-19T10:37:42.845Z,1015.6
2018-06-19T10:38:44.875Z,1015.7
2018-06-19T10:39:46.590Z,1015.5
2018-06-19T10:40:48.454Z,1015.5
2018-06-19T10:41:50.213Z,1015.5
2018-06-19T10:42:51.923Z,1015.5
2018-06-19T10:43:53.873Z,1015.5
2018-06-19T10:44:55.667Z,1015.5
2018-06-19T10:45:57.470Z,1015.7
2018-06-19T10:46:59.316Z,1015.7
2018-06-19T10:48:01.083Z,1015.8
2018-06-19T10:49:02.756Z,1015.7
2018-06-19T10:50:04.592Z,1015.6
2018-06-19T10:51:06.346Z,1015.7
2018-06-19T10:52:08.131Z,1015.6
2018-06-19T10:53:09.854Z,1015.6
2018-06-19T10:54:11.648Z,1015.5
2018-06-19T10:55:13.418Z,1015.6
2018-06-19T10:56:15.232Z,1015.6
2018-06-19T10:57:16.961Z,1015.6
2018-06-19T10:58:18.883Z,1015.6
2018-06-19T10:59:20.626Z,1015.7
2018-06-19T11:00:22.430Z,1015.8
2018-06-19T11:01:24.086Z,1015.8
2018-06-19T11:02:25.901Z,1015.7
2018-06-19T11:03:27.819Z,1015.7
2018-06-19T11:04:29.493Z,1015.7
2018-06-19T11:05:31.403Z,1015.7
2018-06-19T11:06:33.730Z,1015.6
2018-06-19T11:07:35.511Z,1015.6
2018-06-19T11:08:37.315Z,1015.6
2018-06-19T11:09:39.128Z,1015.7
2018-06-19T11:10:40.927Z,1015.7
2018-06-19T11:11:42.669Z,1015.8
2018-06-19T11:12:44.568Z,1015.9
2018-06-19T11:13:46.405Z,1016.0
2018-06-19T11:14:48.388Z,1015.7
2018-06-19T11:15:50.212Z,1015.7
2018-06-19T11:16:51.995Z,1015.8
2018-06-19T11:17:53.853Z,1015.7
2018-06-19T11:18:55.554Z,1015.7
2018-06-19T11:19:57.406Z,1015.7
2018-06-19T11:20:59.170Z,1015.8
2018-06-19T11:22:01.104Z,1015.7
2018-06-19T11:23:02.856Z,1015.7
2018-06-19T11:24:04.680Z,1015.8
2018-06-19T11:25:06.449Z,1015.7
2018-06-19T11:26:08.215Z,1015.6
2018-06-19T11:27:09.944Z,1015.6
2018-06-19T11:28:11.718Z,1015.7
2018-06-19T11:29:13.417Z,1015.6
2018-06-19T11:30:15.252Z,1015.7
2018-06-19T11:31:17.091Z,1015.7
2018-06-19T11:32:18.843Z,1015.7
2018-06-19T11:33:20.614Z,1015.7
2018-06-19T11:34:22.464Z,1015.7
2018-06-19T11:35:24.265Z,1015.6
2018-06-19T11:36:26.023Z,1015.7
2018-06-19T11:37:27.730Z,1015.6
2018-06-19T11:38:29.585Z,1015.6
2018-06-19T11:39:31.322Z,1015.6
2018-06-19T11:40:33.099Z,1015.5
2018-06-19T11:41:34.860Z,1015.5
2018-06-19T11:42:36.560Z,1015.5
2018-06-19T11:43:38.361Z,1015.6
2018-06-19T11:44:40.220Z,1015.6
2018-06-19T11:45:42.034Z,1015.7
2018-06-19T11:46:43.797Z,1015.7
2018-06-19T11:47:45.612Z,1015.8
2018-06-19T11:48:47.404Z,1015.8
2018-06-19T11:49:49.182Z,1015.7
2018-06-19T11:50:50.929Z,1015.7
2018-06-19T11:51:52.787Z,1015.8
2018-06-19T11:52:54.584Z,1015.7
2018-06-19T11:53:56.447Z,1015.7
2018-06-19T11:54:58.211Z,1015.8
2018-06-19T11:55:59.953Z,1015.8
2018-06-19T11:57:01.699Z,1015.7
2018-06-19T11:58:03.537Z,1015.7
2018-06-19T11:59:05.360Z,1015.8
2018-06-19T12:00:07.195Z,1015.8
2018-06-19T12:01:08.931Z,1016.0
2018-06-19T12:02:10.797Z,1015.9
2018-06-19T12:03:12.722Z,1015.9
2018-06-19T12:04:14.530Z,1015.9
2018-06-19T12:05:16.464Z,1015.9
2018-06-19T12:06:18.262Z,1015.8
2018-06-19T12:07:20.062Z,1015.6
2018-06-19T12:08:21.880Z,1015.7
2018-06-19T12:09:23.926Z,1015.7
2018-06-19T12:10:25.672Z,1016.0
2018-06-19T12:11:27.403Z,1016.0
2018-06-19T12:12:29.152Z,1015.8
2018-06-19T12:13:30.957Z,1015.9
2018-06-19T12:14:32.855Z,1015.9
2018-06-19T12:15:34.634Z,1015.9
2018-06-19T12:16:36.596Z,1015.9
2018-06-19T12:17:38.432Z,1015.9
2018-06-19T12:18:40.095Z,1015.9
2018-06-19T12:19:41.858Z,1015.8
2018-06-19T12:20:43.684Z,1015.8
2018-06-19T12:21:45.462Z,1015.8
2018-06-19T12:22:47.281Z,1015.8
2018-06-19T12:23:49.018Z,1015.8
2018-06-19T12:24:50.800Z,1015.8
2018-06-19T12:25:52.768Z,1015.8
2018-06-19T12:26:54.621Z,1015.9
2018-06-19T12:27:56.437Z,1016.0
2018-06-19T12:28:58.254Z,1016.0
2018-06-19T12:29:59.986Z,1015.9
2018-06-19T12:31:01.725Z,1015.7
2018-06-19T12:32:03.572Z,1015.7
2018-06-19T12:33:05.432Z,1015.7
2018-06-19T12:34:07.309Z,1015.7
2018-06-19T12:35:09.132Z,1015.7
2018-06-19T12:36:10.908Z,1015.8
2018-06-19T12:37:12.615Z,1015.8
2018-06-19T12:38:14.361Z,1015.7
2018-06-19T12:39:16.161Z,1015.9
2018-06-19T12:40:18.035Z,1015.8
2018-06-19T12:41:19.819Z,1015.7
2018-06-19T12:42:21.649Z,1015.7
2018-06-19T12:43:23.482Z,1015.6
2018-06-19T12:44:25.317Z,1015.7
2018-06-19T12:45:27.132Z,1015.6
2018-06-19T12:46:29.034Z,1015.6
2018-06-19T12:47:30.946Z,1015.6
2018-06-19T12:48:32.813Z,1015.6
2018-06-19T12:49:34.510Z,1015.7
2018-06-19T12:50:36.221Z,1015.7
2018-06-19T12:51:38.055Z,1015.7